sensor_id;sensor_type;location;lat;lon;timestamp;pressure;altitude;pressure_sealevel;temperature;humidity
54270;BME280;40181;51.560;13.000;2024-03-17T00:01:13;101405.38;;;4.70;90.37
54270;BME280;40181;51.560;13.000;2024-03-17T00:03:42;101408.78;;;4.86;88.73
54270;BME280;40181;51.560;13.000;2024-03-17T00:06:08;101398.19;;;5.18;87.40
54270;BME280;40181;51.560;13.000;2024-03-17T00:08:37;101401.81;;;5.03;87.98
54270;BME280;40181;51.560;13.000;2024-03-17T00:11:04;101400.94;;;5.03;88.08
54270;BME280;40181;51.560;13.000;2024-03-17T00:13:33;101403.31;;;5.16;87.68
54270;BME280;40181;51.560;13.000;2024-03-17T00:16:02;101405.03;;;5.16;88.10
54270;BME280;40181;51.560;13.000;2024-03-17T00:18:32;101410.47;;;5.20;87.53
54270;BME280;40181;51.560;13.000;2024-03-17T00:21:02;101403.91;;;4.92;88.17
54270;BME280;40181;51.560;13.000;2024-03-17T00:23:29;101402.97;;;4.74;89.55
54270;BME280;40181;51.560;13.000;2024-03-17T00:25:58;101412.59;;;4.58;90.64
54270;BME280;40181;51.560;13.000;2024-03-17T00:28:25;101408.78;;;4.51;91.21
54270;BME280;40181;51.560;13.000;2024-03-17T00:30:54;101410.81;;;4.24;92.86
54270;BME280;40181;51.560;13.000;2024-03-17T00:33:23;101407.13;;;4.53;91.07
54270;BME280;40181;51.560;13.000;2024-03-17T00:35:54;101402.84;;;4.21;93.15
54270;BME280;40181;51.560;13.000;2024-03-17T00:38:20;101411.06;;;4.28;92.21
54270;BME280;40181;51.560;13.000;2024-03-17T00:40:49;101409.84;;;4.38;92.86
54270;BME280;40181;51.560;13.000;2024-03-17T00:43:16;101414.63;;;4.14;93.31
54270;BME280;40181;51.560;13.000;2024-03-17T00:45:51;101412.75;;;3.95;94.99
54270;BME280;40181;51.560;13.000;2024-03-17T00:48:17;101415.09;;;3.90;95.67
54270;BME280;40181;51.560;13.000;2024-03-17T00:50:55;101408.78;;;4.18;93.98
54270;BME280;40181;51.560;13.000;2024-03-17T00:53:21;101417.22;;;4.14;94.04
54270;BME280;40181;51.560;13.000;2024-03-17T00:55:51;101407.88;;;4.18;94.15
54270;BME280;40181;51.560;13.000;2024-03-17T00:58:19;101406.66;;;4.27;93.87
54270;BME280;40181;51.560;13.000;2024-03-17T01:00:48;101406.47;;;4.41;92.71
54270;BME280;40181;51.560;13.000;2024-03-17T01:03:15;101405.97;;;4.65;91.69
54270;BME280;40181;51.560;13.000;2024-03-17T01:05:44;101408.28;;;4.42;92.28
54270;BME280;40181;51.560;13.000;2024-03-17T01:08:15;101401.28;;;4.41;92.19
54270;BME280;40181;51.560;13.000;2024-03-17T01:10:45;101402.97;;;4.74;91.14
54270;BME280;40181;51.560;13.000;2024-03-17T01:13:15;101408.81;;;4.69;90.86
54270;BME280;40181;51.560;13.000;2024-03-17T01:15:44;101409.75;;;4.53;91.54
54270;BME280;40181;51.560;13.000;2024-03-17T01:18:11;101416.38;;;4.65;91.59
54270;BME280;40181;51.560;13.000;2024-03-17T01:20:40;101412.84;;;4.46;92.21
54270;BME280;40181;51.560;13.000;2024-03-17T01:23:06;101410.72;;;4.39;92.97
54270;BME280;40181;51.560;13.000;2024-03-17T01:25:38;101406.34;;;4.38;91.97
54270;BME280;40181;51.560;13.000;2024-03-17T01:28:04;101408.94;;;4.38;93.00
54270;BME280;40181;51.560;13.000;2024-03-17T01:30:34;101413.16;;;4.36;92.44
54270;BME280;40181;51.560;13.000;2024-03-17T01:33:00;101409.25;;;4.44;91.50
54270;BME280;40181;51.560;13.000;2024-03-17T01:35:30;101410.78;;;4.57;91.04
54270;BME280;40181;51.560;13.000;2024-03-17T01:38:00;101405.69;;;4.42;91.63
54270;BME280;40181;51.560;13.000;2024-03-17T01:40:26;101403.00;;;4.57;90.80
54270;BME280;40181;51.560;13.000;2024-03-17T01:42:58;101397.06;;;4.43;91.30
54270;BME280;40181;51.560;13.000;2024-03-17T01:45:27;101395.78;;;4.35;91.49
54270;BME280;40181;51.560;13.000;2024-03-17T01:47:58;101397.13;;;4.45;91.70
54270;BME280;40181;51.560;13.000;2024-03-17T01:50:26;101402.44;;;4.46;91.21
54270;BME280;40181;51.560;13.000;2024-03-17T01:53:02;101403.22;;;4.62;90.66
54270;BME280;40181;51.560;13.000;2024-03-17T01:55:30;101405.50;;;4.55;90.47
54270;BME280;40181;51.560;13.000;2024-03-17T01:58:03;101412.69;;;4.43;90.76
54270;BME280;40181;51.560;13.000;2024-03-17T02:00:32;101409.19;;;4.26;91.52
54270;BME280;40181;51.560;13.000;2024-03-17T02:03:01;101410.47;;;4.34;91.60
54270;BME280;40181;51.560;13.000;2024-03-17T02:05:28;101408.06;;;4.21;91.67
54270;BME280;40181;51.560;13.000;2024-03-17T02:07:57;101408.94;;;4.38;91.61
54270;BME280;40181;51.560;13.000;2024-03-17T02:10:24;101412.00;;;4.47;91.41
54270;BME280;40181;51.560;13.000;2024-03-17T02:12:53;101416.34;;;4.30;91.32
54270;BME280;40181;51.560;13.000;2024-03-17T02:15:22;101418.47;;;4.37;90.62
54270;BME280;40181;51.560;13.000;2024-03-17T02:17:51;101410.91;;;4.42;90.55
54270;BME280;40181;51.560;13.000;2024-03-17T02:20:18;101412.34;;;4.53;90.71
54270;BME280;40181;51.560;13.000;2024-03-17T02:22:52;101411.19;;;4.32;91.32
54270;BME280;40181;51.560;13.000;2024-03-17T02:25:19;101408.53;;;4.30;92.13
54270;BME280;40181;51.560;13.000;2024-03-17T02:27:48;101406.25;;;4.36;92.18
54270;BME280;40181;51.560;13.000;2024-03-17T02:30:14;101416.19;;;4.10;92.69
54270;BME280;40181;51.560;13.000;2024-03-17T02:32:43;101406.91;;;4.15;92.52
54270;BME280;40181;51.560;13.000;2024-03-17T02:35:10;101398.13;;;4.30;92.00
54270;BME280;40181;51.560;13.000;2024-03-17T02:37:39;101400.75;;;4.30;91.76
54270;BME280;40181;51.560;13.000;2024-03-17T02:40:09;101408.69;;;4.50;90.74
54270;BME280;40181;51.560;13.000;2024-03-17T02:42:39;101415.41;;;4.63;89.82
54270;BME280;40181;51.560;13.000;2024-03-17T02:45:10;101408.53;;;4.30;91.79
54270;BME280;40181;51.560;13.000;2024-03-17T02:47:40;101414.22;;;4.23;91.64
54270;BME280;40181;51.560;13.000;2024-03-17T02:50:09;101412.91;;;4.14;92.15
54270;BME280;40181;51.560;13.000;2024-03-17T02:52:38;101405.59;;;4.40;91.56
54270;BME280;40181;51.560;13.000;2024-03-17T02:55:10;101406.56;;;4.42;91.82
54270;BME280;40181;51.560;13.000;2024-03-17T02:57:39;101410.78;;;4.57;90.97
54270;BME280;40181;51.560;13.000;2024-03-17T03:00:09;101402.75;;;4.36;91.83
54270;BME280;40181;51.560;13.000;2024-03-17T03:02:39;101403.00;;;4.57;90.94
54270;BME280;40181;51.560;13.000;2024-03-17T03:05:08;101413.84;;;4.15;92.51
54270;BME280;40181;51.560;13.000;2024-03-17T03:07:37;101408.13;;;4.22;93.16
54270;BME280;40181;51.560;13.000;2024-03-17T03:10:10;101414.41;;;3.78;94.30
54270;BME280;40181;51.560;13.000;2024-03-17T03:12:39;101411.13;;;4.13;94.09
54270;BME280;40181;51.560;13.000;2024-03-17T03:15:09;101406.25;;;4.36;92.08
54270;BME280;40181;51.560;13.000;2024-03-17T03:17:38;101416.97;;;4.59;91.06
54270;BME280;40181;51.560;13.000;2024-03-17T03:20:08;101408.25;;;4.59;90.72
54270;BME280;40181;51.560;13.000;2024-03-17T03:22:37;101411.72;;;4.24;92.32
54270;BME280;40181;51.560;13.000;2024-03-17T03:25:09;101417.22;;;4.31;92.15
54270;BME280;40181;51.560;13.000;2024-03-17T03:27:38;101416.91;;;4.08;93.97
54270;BME280;40181;51.560;13.000;2024-03-17T03:30:09;101414.38;;;4.42;92.07
54270;BME280;40181;51.560;13.000;2024-03-17T03:32:40;101413.59;;;4.10;93.61
54270;BME280;40181;51.560;13.000;2024-03-17T03:35:12;101416.59;;;4.35;92.26
54270;BME280;40181;51.560;13.000;2024-03-17T03:37:42;101421.06;;;4.37;92.51
54270;BME280;40181;51.560;13.000;2024-03-17T03:40:14;101406.47;;;4.41;92.01
54270;BME280;40181;51.560;13.000;2024-03-17T03:42:44;101413.91;;;4.33;92.72
54270;BME280;40181;51.560;13.000;2024-03-17T03:45:13;101415.44;;;4.29;92.12
54270;BME280;40181;51.560;13.000;2024-03-17T03:47:43;101413.75;;;4.30;92.45
54270;BME280;40181;51.560;13.000;2024-03-17T03:50:15;101420.41;;;4.25;92.69
54270;BME280;40181;51.560;13.000;2024-03-17T03:52:47;101416.59;;;4.35;92.52
54270;BME280;40181;51.560;13.000;2024-03-17T03:55:18;101424.47;;;4.20;92.35
54270;BME280;40181;51.560;13.000;2024-03-17T03:57:49;101426.81;;;3.98;94.21
54270;BME280;40181;51.560;13.000;2024-03-17T04:00:18;101415.44;;;4.13;92.83
54270;BME280;40181;51.560;13.000;2024-03-17T04:02:50;101417.56;;;4.20;92.07
54270;BME280;40181;51.560;13.000;2024-03-17T04:05:17;101427.81;;;4.34;91.94
54270;BME280;40181;51.560;13.000;2024-03-17T04:07:48;101416.88;;;4.41;91.38
54270;BME280;40181;51.560;13.000;2024-03-17T04:10:19;101418.53;;;4.22;92.19
54270;BME280;40181;51.560;13.000;2024-03-17T04:12:49;101418.84;;;4.45;91.55
54270;BME280;40181;51.560;13.000;2024-03-17T04:15:18;101422.13;;;4.24;92.35
54270;BME280;40181;51.560;13.000;2024-03-17T04:17:48;101425.22;;;4.50;91.63
54270;BME280;40181;51.560;13.000;2024-03-17T04:20:17;101416.50;;;4.50;91.78
54270;BME280;40181;51.560;13.000;2024-03-17T04:22:47;101422.03;;;4.39;91.43
54270;BME280;40181;51.560;13.000;2024-03-17T04:25:18;101420.72;;;4.48;91.43
54270;BME280;40181;51.560;13.000;2024-03-17T04:27:48;101423.13;;;4.61;90.68
54270;BME280;40181;51.560;13.000;2024-03-17T04:30:17;101418.16;;;4.66;90.40
54270;BME280;40181;51.560;13.000;2024-03-17T04:32:47;101417.56;;;4.53;90.16
54270;BME280;40181;51.560;13.000;2024-03-17T04:35:17;101428.19;;;4.25;92.23
54270;BME280;40181;51.560;13.000;2024-03-17T04:37:46;101432.06;;;4.00;94.18
54270;BME280;40181;51.560;13.000;2024-03-17T04:40:15;101428.53;;;4.31;93.70
54270;BME280;40181;51.560;13.000;2024-03-17T04:42:47;101432.19;;;4.35;93.47
54270;BME280;40181;51.560;13.000;2024-03-17T04:45:17;101440.63;;;4.31;92.91
54270;BME280;40181;51.560;13.000;2024-03-17T04:47:46;101437.06;;;4.45;93.27
54270;BME280;40181;51.560;13.000;2024-03-17T04:50:15;101437.22;;;4.48;92.95
54270;BME280;40181;51.560;13.000;2024-03-17T04:52:44;101443.22;;;4.31;93.69
54270;BME280;40181;51.560;13.000;2024-03-17T04:55:14;101440.81;;;4.17;93.82
54270;BME280;40181;51.560;13.000;2024-03-17T04:57:46;101447.81;;;4.35;94.04
54270;BME280;40181;51.560;13.000;2024-03-17T05:00:16;101449.72;;;4.22;93.21
54270;BME280;40181;51.560;13.000;2024-03-17T05:02:46;101443.09;;;4.27;94.15
54270;BME280;40181;51.560;13.000;2024-03-17T05:05:15;101450.91;;;4.44;93.35
54270;BME280;40181;51.560;13.000;2024-03-17T05:07:44;101455.28;;;4.28;93.43
54270;BME280;40181;51.560;13.000;2024-03-17T05:10:13;101454.66;;;4.33;93.34
54270;BME280;40181;51.560;13.000;2024-03-17T05:12:42;101452.81;;;4.48;93.00
54270;BME280;40181;51.560;13.000;2024-03-17T05:15:15;101468.34;;;4.13;93.62
54270;BME280;40181;51.560;13.000;2024-03-17T05:17:44;101450.97;;;4.46;93.28
54270;BME280;40181;51.560;13.000;2024-03-17T05:20:13;101457.22;;;4.49;92.84
54270;BME280;40181;51.560;13.000;2024-03-17T05:22:43;101463.22;;;4.32;93.34
54270;BME280;40181;51.560;13.000;2024-03-17T05:25:13;101458.78;;;4.29;93.56
54270;BME280;40181;51.560;13.000;2024-03-17T05:27:42;101457.16;;;4.31;93.24
54270;BME280;40181;51.560;13.000;2024-03-17T05:30:14;101466.34;;;4.24;93.62
54270;BME280;40181;51.560;13.000;2024-03-17T05:32:43;101468.19;;;4.43;93.33
54270;BME280;40181;51.560;13.000;2024-03-17T05:35:13;101466.41;;;4.42;92.80
54270;BME280;40181;51.560;13.000;2024-03-17T05:37:42;101472.06;;;4.19;94.31
54270;BME280;40181;51.560;13.000;2024-03-17T05:40:11;101462.25;;;4.29;93.92
54270;BME280;40181;51.560;13.000;2024-03-17T05:42:41;101471.38;;;4.38;93.25
54270;BME280;40181;51.560;13.000;2024-03-17T05:45:10;101463.72;;;4.41;93.11
54270;BME280;40181;51.560;13.000;2024-03-17T05:47:42;101467.13;;;4.56;92.72
54270;BME280;40181;51.560;13.000;2024-03-17T05:50:11;101463.38;;;4.68;92.57
54270;BME280;40181;51.560;13.000;2024-03-17T05:52:41;101474.38;;;4.46;92.75
54270;BME280;40181;51.560;13.000;2024-03-17T05:55:10;101471.88;;;4.64;92.29
54270;BME280;40181;51.560;13.000;2024-03-17T05:57:39;101472.44;;;4.75;92.17
54270;BME280;40181;51.560;13.000;2024-03-17T06:00:09;101476.16;;;4.80;91.80
54270;BME280;40181;51.560;13.000;2024-03-17T06:02:44;101473.97;;;4.71;91.75
54270;BME280;40181;51.560;13.000;2024-03-17T06:05:13;101491.72;;;4.78;91.84
54270;BME280;40181;51.560;13.000;2024-03-17T06:07:42;101476.91;;;4.77;92.11
54270;BME280;40181;51.560;13.000;2024-03-17T06:10:12;101488.63;;;4.52;93.03
54270;BME280;40181;51.560;13.000;2024-03-17T06:12:41;101490.31;;;4.52;94.46
54270;BME280;40181;51.560;13.000;2024-03-17T06:15:11;101484.78;;;4.29;95.11
54270;BME280;40181;51.560;13.000;2024-03-17T06:17:42;101485.13;;;4.52;94.25
54270;BME280;40181;51.560;13.000;2024-03-17T06:20:11;101497.72;;;4.27;95.34
54270;BME280;40181;51.560;13.000;2024-03-17T06:22:41;101495.72;;;4.55;94.21
54270;BME280;40181;51.560;13.000;2024-03-17T06:25:11;101492.84;;;4.34;94.75
54270;BME280;40181;51.560;13.000;2024-03-17T06:27:40;101503.53;;;4.55;93.67
54270;BME280;40181;51.560;13.000;2024-03-17T06:30:14;101510.50;;;4.39;94.16
54270;BME280;40181;51.560;13.000;2024-03-17T06:32:44;101505.84;;;4.67;93.94
54270;BME280;40181;51.560;13.000;2024-03-17T06:35:15;101514.97;;;4.75;92.82
54270;BME280;40181;51.560;13.000;2024-03-17T06:37:44;101507.09;;;4.74;92.85
54270;BME280;40181;51.560;13.000;2024-03-17T06:40:14;101513.84;;;4.87;92.88
54270;BME280;40181;51.560;13.000;2024-03-17T06:42:44;101522.84;;;4.43;94.72
54270;BME280;40181;51.560;13.000;2024-03-17T06:45:16;101518.19;;;4.38;95.02
54270;BME280;40181;51.560;13.000;2024-03-17T06:47:46;101530.50;;;4.40;95.92
54270;BME280;40181;51.560;13.000;2024-03-17T06:50:15;101519.16;;;4.40;95.29
54270;BME280;40181;51.560;13.000;2024-03-17T06:52:44;101516.28;;;4.19;96.10
54270;BME280;40181;51.560;13.000;2024-03-17T06:55:13;101525.41;;;4.10;96.70
54270;BME280;40181;51.560;13.000;2024-03-17T06:57:43;101520.25;;;4.60;95.22
54270;BME280;40181;51.560;13.000;2024-03-17T07:00:16;101523.66;;;4.59;94.78
54270;BME280;40181;51.560;13.000;2024-03-17T07:02:50;101522.13;;;4.79;93.31
54270;BME280;40181;51.560;13.000;2024-03-17T07:05:19;101527.59;;;4.67;94.07
54270;BME280;40181;51.560;13.000;2024-03-17T07:07:48;101535.31;;;4.82;93.78
54270;BME280;40181;51.560;13.000;2024-03-17T07:10:17;101527.16;;;4.76;94.23
54270;BME280;40181;51.560;13.000;2024-03-17T07:12:46;101535.13;;;4.46;95.33
54270;BME280;40181;51.560;13.000;2024-03-17T07:15:18;101533.34;;;4.45;95.89
54270;BME280;40181;51.560;13.000;2024-03-17T07:17:49;101533.72;;;4.20;96.77
54270;BME280;40181;51.560;13.000;2024-03-17T07:20:19;101543.72;;;4.28;97.59
54270;BME280;40181;51.560;13.000;2024-03-17T07:22:48;101528.78;;;4.57;96.84
54270;BME280;40181;51.560;13.000;2024-03-17T07:25:18;101544.81;;;4.49;96.87
54270;BME280;40181;51.560;13.000;2024-03-17T07:27:47;101535.47;;;4.52;95.99
54270;BME280;40181;51.560;13.000;2024-03-17T07:30:19;101534.22;;;4.46;96.91
54270;BME280;40181;51.560;13.000;2024-03-17T07:32:48;101537.81;;;4.48;97.09
54270;BME280;40181;51.560;13.000;2024-03-17T07:35:17;101549.94;;;4.64;95.80
54270;BME280;40181;51.560;13.000;2024-03-17T07:37:46;101545.31;;;4.75;95.75
54270;BME280;40181;51.560;13.000;2024-03-17T07:40:16;101532.38;;;4.76;95.71
54270;BME280;40181;51.560;13.000;2024-03-17T07:42:45;101540.34;;;4.79;95.85
54270;BME280;40181;51.560;13.000;2024-03-17T07:45:14;101546.28;;;4.60;96.74
54270;BME280;40181;51.560;13.000;2024-03-17T07:47:47;101549.59;;;4.57;96.62
54270;BME280;40181;51.560;13.000;2024-03-17T07:50:18;101540.34;;;4.63;97.02
54270;BME280;40181;51.560;13.000;2024-03-17T07:52:47;101539.59;;;4.98;95.79
54270;BME280;40181;51.560;13.000;2024-03-17T07:55:16;101553.06;;;5.24;94.45
54270;BME280;40181;51.560;13.000;2024-03-17T07:57:45;101549.00;;;5.30;94.33
54270;BME280;40181;51.560;13.000;2024-03-17T08:00:14;101538.72;;;5.33;93.62
54270;BME280;40181;51.560;13.000;2024-03-17T08:02:48;101539.50;;;5.48;92.30
54270;BME280;40181;51.560;13.000;2024-03-17T08:05:17;101540.13;;;5.61;91.64
54270;BME280;40181;51.560;13.000;2024-03-17T08:07:47;101539.38;;;5.63;91.93
54270;BME280;40181;51.560;13.000;2024-03-17T08:10:16;101536.63;;;5.78;90.90
54270;BME280;40181;51.560;13.000;2024-03-17T08:12:47;101543.84;;;5.84;90.38
54270;BME280;40181;51.560;13.000;2024-03-17T08:15:16;101549.72;;;5.98;90.42
54270;BME280;40181;51.560;13.000;2024-03-17T08:17:47;101537.59;;;5.99;90.32
54270;BME280;40181;51.560;13.000;2024-03-17T08:20:14;101540.53;;;6.05;89.72
54270;BME280;40181;51.560;13.000;2024-03-17T08:22:44;101548.84;;;5.79;89.74
54270;BME280;40181;51.560;13.000;2024-03-17T08:25:13;101542.91;;;6.00;89.30
54270;BME280;40181;51.560;13.000;2024-03-17T08:27:42;101548.75;;;5.96;88.59
54270;BME280;40181;51.560;13.000;2024-03-17T08:30:12;101540.59;;;6.06;87.21
54270;BME280;40181;51.560;13.000;2024-03-17T08:32:41;101533.41;;;6.20;86.36
54270;BME280;40181;51.560;13.000;2024-03-17T08:35:13;101532.97;;;6.11;87.72
54270;BME280;40181;51.560;13.000;2024-03-17T08:37:42;101539.22;;;6.33;86.87
54270;BME280;40181;51.560;13.000;2024-03-17T08:40:12;101528.25;;;6.40;87.17
54270;BME280;40181;51.560;13.000;2024-03-17T08:42:41;101520.63;;;6.45;86.96
54270;BME280;40181;51.560;13.000;2024-03-17T08:45:11;101522.97;;;6.58;82.21
54270;BME280;40181;51.560;13.000;2024-03-17T08:47:41;101523.75;;;6.75;80.06
54270;BME280;40181;51.560;13.000;2024-03-17T08:50:13;101524.97;;;6.64;79.31
54270;BME280;40181;51.560;13.000;2024-03-17T08:52:43;101519.63;;;6.61;78.68
54270;BME280;40181;51.560;13.000;2024-03-17T08:55:12;101516.09;;;6.60;78.72
54270;BME280;40181;51.560;13.000;2024-03-17T08:57:41;101515.34;;;6.63;76.74
54270;BME280;40181;51.560;13.000;2024-03-17T09:00:11;101514.66;;;6.67;75.74
54270;BME280;40181;51.560;13.000;2024-03-17T09:02:41;101510.03;;;6.61;75.63
54270;BME280;40181;51.560;13.000;2024-03-17T09:05:13;101508.66;;;6.70;75.72
54270;BME280;40181;51.560;13.000;2024-03-17T09:07:42;101500.16;;;6.74;76.61
54270;BME280;40181;51.560;13.000;2024-03-17T09:10:11;101501.31;;;6.81;75.10
54270;BME280;40181;51.560;13.000;2024-03-17T09:12:40;101509.91;;;6.78;74.66
54270;BME280;40181;51.560;13.000;2024-03-17T09:15:12;101503.59;;;6.92;74.54
54270;BME280;40181;51.560;13.000;2024-03-17T09:17:41;101497.66;;;6.97;74.44
54270;BME280;40181;51.560;13.000;2024-03-17T09:20:14;101499.94;;;6.89;75.11
54270;BME280;40181;51.560;13.000;2024-03-17T09:22:43;101484.66;;;6.98;76.19
54270;BME280;40181;51.560;13.000;2024-03-17T09:25:12;101490.16;;;7.04;76.40
54270;BME280;40181;51.560;13.000;2024-03-17T09:27:41;101476.38;;;7.09;75.21
54270;BME280;40181;51.560;13.000;2024-03-17T09:30:12;101481.78;;;7.12;75.76
54270;BME280;40181;51.560;13.000;2024-03-17T09:32:41;101479.16;;;7.12;75.33
54270;BME280;40181;51.560;13.000;2024-03-17T09:35:10;101481.56;;;7.07;74.58
54270;BME280;40181;51.560;13.000;2024-03-17T09:37:42;101471.09;;;7.28;74.18
54270;BME280;40181;51.560;13.000;2024-03-17T09:40:14;101488.34;;;7.23;74.08
54270;BME280;40181;51.560;13.000;2024-03-17T09:42:43;101478.81;;;7.25;72.24
54270;BME280;40181;51.560;13.000;2024-03-17T09:45:12;101476.75;;;6.97;70.47
54270;BME280;40181;51.560;13.000;2024-03-17T09:47:44;101475.44;;;7.06;70.46
54270;BME280;40181;51.560;13.000;2024-03-17T09:50:15;101478.50;;;7.17;69.95
54270;BME280;40181;51.560;13.000;2024-03-17T09:52:45;101482.84;;;7.38;69.29
54270;BME280;40181;51.560;13.000;2024-03-17T09:55:16;101472.88;;;7.51;67.26
54270;BME280;40181;51.560;13.000;2024-03-17T09:57:45;101472.31;;;7.37;64.96
54270;BME280;40181;51.560;13.000;2024-03-17T10:00:15;101479.78;;;7.48;65.16
54270;BME280;40181;51.560;13.000;2024-03-17T10:02:44;101466.69;;;7.48;64.65
54270;BME280;40181;51.560;13.000;2024-03-17T10:05:22;101467.47;;;7.46;64.33
54270;BME280;40181;51.560;13.000;2024-03-17T10:07:52;101480.03;;;7.55;63.32
54270;BME280;40181;51.560;13.000;2024-03-17T10:10:21;101467.16;;;7.59;63.72
54270;BME280;40181;51.560;13.000;2024-03-17T10:12:51;101470.03;;;7.66;64.16
54270;BME280;40181;51.560;13.000;2024-03-17T10:15:20;101472.66;;;7.67;63.36
54270;BME280;40181;51.560;13.000;2024-03-17T10:17:49;101457.41;;;7.78;64.01
54270;BME280;40181;51.560;13.000;2024-03-17T10:20:24;101463.66;;;7.82;63.00
54270;BME280;40181;51.560;13.000;2024-03-17T10:22:59;101457.47;;;8.02;62.55
54270;BME280;40181;51.560;13.000;2024-03-17T10:25:30;101472.13;;;7.97;63.32
54270;BME280;40181;51.560;13.000;2024-03-17T10:28:01;101473.75;;;7.95;63.10
54270;BME280;40181;51.560;13.000;2024-03-17T10:30:30;101476.41;;;7.74;62.17
54270;BME280;40181;51.560;13.000;2024-03-17T10:32:59;101469.00;;;7.62;62.27
54270;BME280;40181;51.560;13.000;2024-03-17T10:35:35;101472.16;;;7.99;62.84
54270;BME280;40181;51.560;13.000;2024-03-17T10:38:07;101473.94;;;8.00;60.29
54270;BME280;40181;51.560;13.000;2024-03-17T10:40:37;101462.97;;;8.10;60.41
54270;BME280;40181;51.560;13.000;2024-03-17T10:43:10;101482.03;;;8.06;59.12
54270;BME280;40181;51.560;13.000;2024-03-17T10:45:42;101463.25;;;8.41;59.09
54270;BME280;40181;51.560;13.000;2024-03-17T10:48:15;101474.34;;;8.34;58.45
54270;BME280;40181;51.560;13.000;2024-03-17T10:50:52;101479.97;;;8.67;59.17
54270;BME280;40181;51.560;13.000;2024-03-17T10:53:25;101470.53;;;8.97;59.44
54270;BME280;40181;51.560;13.000;2024-03-17T10:56:03;101477.34;;;8.67;57.69
54270;BME280;40181;51.560;13.000;2024-03-17T10:58:35;101475.78;;;8.98;57.36
54270;BME280;40181;51.560;13.000;2024-03-17T11:01:11;101471.63;;;8.55;56.15
54270;BME280;40181;51.560;13.000;2024-03-17T11:03:41;101460.72;;;8.67;56.27
54270;BME280;40181;51.560;13.000;2024-03-17T11:06:15;101468.09;;;8.30;56.88
54270;BME280;40181;51.560;13.000;2024-03-17T11:08:46;101469.03;;;8.55;57.47
54270;BME280;40181;51.560;13.000;2024-03-17T11:11:34;101455.63;;;8.70;56.84
54270;BME280;40181;51.560;13.000;2024-03-17T11:14:15;101456.00;;;8.56;56.65
54270;BME280;40181;51.560;13.000;2024-03-17T11:16:47;101451.84;;;8.63;56.43
54270;BME280;40181;51.560;13.000;2024-03-17T11:19:17;101454.53;;;8.65;56.08
54270;BME280;40181;51.560;13.000;2024-03-17T11:21:49;101454.63;;;8.43;54.00
54270;BME280;40181;51.560;13.000;2024-03-17T11:24:20;101462.72;;;8.50;54.07
54270;BME280;40181;51.560;13.000;2024-03-17T11:26:50;101445.31;;;8.76;54.19
54270;BME280;40181;51.560;13.000;2024-03-17T11:29:28;101454.69;;;8.45;54.29
54270;BME280;40181;51.560;13.000;2024-03-17T11:31:58;101439.44;;;8.57;54.52
54270;BME280;40181;51.560;13.000;2024-03-17T11:34:44;101446.72;;;8.91;55.44
54270;BME280;40181;51.560;13.000;2024-03-17T11:37:40;101445.63;;;8.60;56.01
54270;BME280;40181;51.560;13.000;2024-03-17T11:40:23;101439.16;;;8.74;55.70
54270;BME280;40181;51.560;13.000;2024-03-17T11:43:00;101443.72;;;8.80;56.64
54270;BME280;40181;51.560;13.000;2024-03-17T11:45:31;101434.81;;;9.01;56.97
54270;BME280;40181;51.560;13.000;2024-03-17T11:47:58;101451.19;;;8.93;56.83
54270;BME280;40181;51.560;13.000;2024-03-17T11:50:31;101441.22;;;8.83;56.89
54270;BME280;40181;51.560;13.000;2024-03-17T11:53:00;101441.09;;;8.80;57.72
54270;BME280;40181;51.560;13.000;2024-03-17T11:55:30;101440.78;;;8.96;57.29
54270;BME280;40181;51.560;13.000;2024-03-17T11:57:56;101431.78;;;8.88;56.50
54270;BME280;40181;51.560;13.000;2024-03-17T12:00:25;101440.69;;;8.93;56.38
54270;BME280;40181;51.560;13.000;2024-03-17T12:02:53;101439.94;;;8.97;56.47
54270;BME280;40181;51.560;13.000;2024-03-17T12:05:23;101436.06;;;9.12;56.78
54270;BME280;40181;51.560;13.000;2024-03-17T12:07:51;101434.16;;;9.08;56.45
54270;BME280;40181;51.560;13.000;2024-03-17T12:10:22;101422.03;;;9.10;57.07
54270;BME280;40181;51.560;13.000;2024-03-17T12:12:49;101412.13;;;9.01;56.39
54270;BME280;40181;51.560;13.000;2024-03-17T12:15:19;101412.88;;;8.97;56.40
54270;BME280;40181;51.560;13.000;2024-03-17T12:17:52;101410.28;;;8.98;55.88
54270;BME280;40181;51.560;13.000;2024-03-17T12:20:22;101411.56;;;9.11;55.26
54270;BME280;40181;51.560;13.000;2024-03-17T12:22:49;101424.34;;;9.28;54.81
54270;BME280;40181;51.560;13.000;2024-03-17T12:25:22;101424.25;;;9.25;54.14
54270;BME280;40181;51.560;13.000;2024-03-17T12:27:51;101422.25;;;9.44;54.00
54270;BME280;40181;51.560;13.000;2024-03-17T12:30:21;101410.19;;;9.50;54.16
54270;BME280;40181;51.560;13.000;2024-03-17T12:32:48;101404.59;;;9.39;52.70
54270;BME280;40181;51.560;13.000;2024-03-17T12:35:17;101410.97;;;9.46;53.58
54270;BME280;40181;51.560;13.000;2024-03-17T12:37:45;101409.13;;;9.44;53.08
54270;BME280;40181;51.560;13.000;2024-03-17T12:40:23;101401.75;;;9.59;53.83
54270;BME280;40181;51.560;13.000;2024-03-17T12:42:50;101405.19;;;9.58;54.13
54270;BME280;40181;51.560;13.000;2024-03-17T12:45:20;101395.22;;;9.46;53.52
54270;BME280;40181;51.560;13.000;2024-03-17T12:47:48;101396.84;;;9.43;53.70
54270;BME280;40181;51.560;13.000;2024-03-17T12:50:20;101387.50;;;9.80;53.30
54270;BME280;40181;51.560;13.000;2024-03-17T12:52:56;101386.97;;;9.63;53.34
54270;BME280;40181;51.560;13.000;2024-03-17T12:55:28;101393.34;;;9.71;53.11
54270;BME280;40181;51.560;13.000;2024-03-17T12:58:10;101393.97;;;9.62;52.81
54270;BME280;40181;51.560;13.000;2024-03-17T13:00:58;101398.97;;;9.54;52.55
54270;BME280;40181;51.560;13.000;2024-03-17T13:03:30;101389.84;;;9.41;53.60
54270;BME280;40181;51.560;13.000;2024-03-17T13:06:00;101398.97;;;9.54;53.87